createdAt,value
2018-08-16T00:00:02.514Z,99334.15
2018-08-16T00:02:30.186Z,99339.90
2018-08-16T00:04:58.076Z,99332.20
2018-08-16T00:07:25.821Z,99339.90
2018-08-16T00:09:54.212Z,99339.90
2018-08-16T00:12:21.962Z,99330.84
2018-08-16T00:14:49.794Z,99332.50
2018-08-16T00:17:17.620Z,99337.71
2018-08-16T00:19:45.334Z,99332.23
2018-08-16T00:22:13.130Z,99334.18
2018-08-16T00:24:40.841Z,99334.45
2018-08-16T00:27:08.627Z,99327.55
2018-08-16T00:29:36.330Z,99327.55
2018-08-16T00:32:04.059Z,99330.87
2018-08-16T00:34:31.870Z,99326.19
2018-08-16T00:36:59.786Z,99328.39
2018-08-16T00:39:27.673Z,99328.92
2018-08-16T00:41:55.506Z,99332.80
2018-08-16T00:44:23.341Z,99338.80
2018-08-16T00:46:51.167Z,99339.92
2018-08-16T00:49:18.955Z,99338.00
2018-08-16T00:51:46.722Z,99337.72
2018-08-16T00:54:14.532Z,99343.21
2018-08-16T00:56:42.285Z,99344.04
2018-08-16T00:59:09.978Z,99344.03
2018-08-16T01:01:37.666Z,99343.77
2018-08-16T01:04:05.701Z,99345.98
2018-08-16T01:06:33.360Z,99345.14
2018-08-16T01:09:01.019Z,99346.19
2018-08-16T01:11:28.777Z,99345.35
2018-08-16T01:13:56.429Z,99337.69
2018-08-16T01:16:24.108Z,99339.34
2018-08-16T01:18:51.945Z,99345.08
2018-08-16T01:21:19.590Z,99341.80
2018-08-16T01:23:47.248Z,99334.16
2018-08-16T01:26:14.982Z,99330.02
2018-08-16T01:28:42.809Z,99342.94
2018-08-16T01:31:10.630Z,99343.14
2018-08-16T01:33:38.357Z,99345.08
2018-08-16T01:36:06.137Z,99341.31
2018-08-16T01:38:33.835Z,99343.75
2018-08-16T01:41:01.530Z,99348.16
2018-08-16T01:43:29.196Z,99343.22
2018-08-16T01:45:56.875Z,99339.64
2018-08-16T01:48:24.569Z,99339.39
2018-08-16T01:50:52.287Z,99329.77
2018-08-16T01:53:20.395Z,99331.69
2018-08-16T01:55:48.123Z,99331.16
2018-08-16T01:58:15.835Z,99331.16
2018-08-16T02:00:43.506Z,99339.39
2018-08-16T02:03:11.169Z,99339.38
2018-08-16T02:05:38.858Z,99336.08
2018-08-16T02:08:06.657Z,99338.02
2018-08-16T02:10:34.321Z,99334.66
2018-08-16T02:13:02.014Z,99341.02
2018-08-16T02:15:29.705Z,99347.84
2018-08-16T02:17:57.372Z,99344.82
2018-08-16T02:20:25.089Z,99346.16
2018-08-16T02:22:52.771Z,99342.30
2018-08-16T02:25:20.499Z,99343.11
2018-08-16T02:27:48.186Z,99341.22
2018-08-16T02:30:15.841Z,99343.40
2018-08-16T02:32:43.529Z,99348.06
2018-08-16T02:35:11.284Z,99338.17
2018-08-16T02:37:39.006Z,99356.24
2018-08-16T02:40:07.386Z,99352.66
2018-08-16T02:42:35.202Z,99357.56
2018-08-16T02:45:02.971Z,99352.35
2018-08-16T02:47:30.653Z,99349.30
2018-08-16T02:49:58.305Z,99356.97
2018-08-16T02:52:26.001Z,99353.57
2018-08-16T02:54:53.681Z,99348.59
2018-08-16T02:57:21.437Z,99356.56
2018-08-16T02:59:49.091Z,99353.28
2018-08-16T03:02:16.777Z,99361.25
2018-08-16T03:04:44.539Z,99358.18
2018-08-16T03:07:12.220Z,99362.84
2018-08-16T03:09:39.921Z,99367.95
2018-08-16T03:12:09.689Z,99365.11
2018-08-16T03:14:37.514Z,99369.98
2018-08-16T03:17:05.345Z,99373.31
2018-08-16T03:19:33.037Z,99369.77
2018-08-16T03:22:00.755Z,99372.50
2018-08-16T03:24:28.430Z,99369.78
2018-08-16T03:26:56.109Z,99369.02
2018-08-16T03:29:23.815Z,99372.52
2018-08-16T03:31:51.475Z,99377.17
2018-08-16T03:34:19.129Z,99377.80
2018-08-16T03:36:46.790Z,99374.28
2018-08-16T03:39:14.438Z,99384.20
2018-08-16T03:41:42.157Z,99378.49
2018-08-16T03:44:09.796Z,99383.84
2018-08-16T03:46:37.502Z,99389.95
2018-08-16T03:49:05.342Z,99387.52
2018-08-16T03:51:32.986Z,99390.91
2018-08-16T03:54:00.641Z,99387.83
2018-08-16T03:56:28.379Z,99381.05
2018-08-16T03:58:56.054Z,99374.98
2018-08-16T04:01:23.722Z,99376.14
2018-08-16T04:03:51.419Z,99370.61
2018-08-16T04:06:19.098Z,99381.07
2018-08-16T04:08:46.759Z,99362.61
2018-08-16T04:11:14.506Z,99370.70
2018-08-16T04:13:42.238Z,99369.30
2018-08-16T04:16:09.976Z,99363.59
2018-08-16T04:18:37.630Z,99369.58
2018-08-16T04:21:05.354Z,99358.86
2018-08-16T04:23:33.063Z,99353.42
2018-08-16T04:26:00.730Z,99351.23
2018-08-16T04:28:28.386Z,99354.41
2018-08-16T04:30:56.046Z,99352.96
2018-08-16T04:33:23.736Z,99357.57
2018-08-16T04:35:51.382Z,99357.28
2018-08-16T04:38:19.022Z,99358.56
2018-08-16T04:40:46.658Z,99351.31
2018-08-16T04:43:14.314Z,99355.52
2018-08-16T04:45:41.996Z,99354.10
2018-08-16T04:48:09.636Z,99355.27
2018-08-16T04:50:37.315Z,99356.81
2018-08-16T04:53:05.143Z,99365.39
2018-08-16T04:55:32.821Z,99369.23
2018-08-16T04:58:00.518Z,99367.84
2018-08-16T05:00:28.257Z,99361.48
2018-08-16T05:02:55.973Z,99362.73
2018-08-16T05:05:23.677Z,99366.95
2018-08-16T05:07:51.347Z,99369.00
2018-08-16T05:10:19.030Z,99370.76
2018-08-16T05:12:46.673Z,99379.98
2018-08-16T05:15:14.366Z,99392.78
2018-08-16T05:17:42.014Z,99400.79
2018-08-16T05:20:11.849Z,99401.47
2018-08-16T05:22:39.557Z,99415.78
2018-08-16T05:25:07.330Z,99418.73
2018-08-16T05:27:35.349Z,99427.22
2018-08-16T05:30:04.410Z,99419.51
2018-08-16T05:32:32.105Z,99405.00
2018-08-16T05:34:59.824Z,99402.23
2018-08-16T05:37:27.534Z,99397.36
2018-08-16T05:39:55.218Z,99401.63
2018-08-16T05:42:22.912Z,99409.48
2018-08-16T05:44:50.573Z,99404.91
2018-08-16T05:47:18.269Z,99395.25
2018-08-16T05:49:45.917Z,99401.44
2018-08-16T05:52:13.617Z,99404.11
2018-08-16T05:54:41.281Z,99405.19
2018-08-16T05:57:08.965Z,99387.25
2018-08-16T05:59:36.699Z,99382.61
2018-08-16T06:02:04.423Z,99382.63
2018-08-16T06:04:32.115Z,99387.07
2018-08-16T06:06:59.818Z,99386.61
2018-08-16T06:09:27.465Z,99389.48
2018-08-16T06:11:55.165Z,99397.45
2018-08-16T06:14:22.831Z,99405.03
2018-08-16T06:16:50.494Z,99415.05
2018-08-16T06:19:18.188Z,99432.58
2018-08-16T06:21:45.902Z,99424.31
2018-08-16T06:24:13.608Z,99429.39
2018-08-16T06:26:41.380Z,99421.04
2018-08-16T06:29:09.098Z,99421.75
2018-08-16T06:31:36.935Z,99420.17
2018-08-16T06:34:04.727Z,99410.94
2018-08-16T06:36:32.402Z,99406.81
2018-08-16T06:39:00.174Z,99405.41
2018-08-16T06:41:27.886Z,99416.44
2018-08-16T06:43:55.574Z,99433.03
2018-08-16T06:46:23.359Z,99422.30
2018-08-16T06:48:51.115Z,99421.58
2018-08-16T06:51:18.829Z,99426.30
2018-08-16T06:53:46.542Z,99423.31
2018-08-16T06:56:14.295Z,99422.11
2018-08-16T06:58:42.046Z,99429.05
2018-08-16T07:01:09.867Z,99432.98
2018-08-16T07:03:37.547Z,99430.52
2018-08-16T07:06:05.393Z,99431.44
2018-08-16T07:08:33.073Z,99436.52
2018-08-16T07:11:00.921Z,99443.45
2018-08-16T07:13:28.658Z,99444.66
2018-08-16T07:15:56.324Z,99440.59
2018-08-16T07:18:24.001Z,99438.88
2018-08-16T07:20:51.682Z,99435.93
2018-08-16T07:23:19.437Z,99434.95
2018-08-16T07:25:47.108Z,99431.77
2018-08-16T07:28:14.817Z,99432.02
2018-08-16T07:30:42.515Z,99441.42
2018-08-16T07:33:10.166Z,99446.55
2018-08-16T07:35:37.881Z,99440.75
2018-08-16T07:38:05.634Z,99445.16
2018-08-16T07:40:33.342Z,99435.15
2018-08-16T07:43:01.043Z,99419.57
2018-08-16T07:45:28.823Z,99424.71
2018-08-16T07:47:56.594Z,99431.95
2018-08-16T07:50:24.324Z,99428.67
2018-08-16T07:52:52.057Z,99425.09
2018-08-16T07:55:19.760Z,99426.58
2018-08-16T07:57:47.448Z,99429.59
2018-08-16T08:00:18.716Z,99427.92
2018-08-16T08:02:46.842Z,99415.89
2018-08-16T08:05:14.647Z,99408.47
2018-08-16T08:07:42.677Z,99413.37
2018-08-16T08:10:10.456Z,99403.67
2018-08-16T08:12:38.863Z,99409.75
2018-08-16T08:15:09.144Z,99411.80
2018-08-16T08:17:37.261Z,99415.09
2018-08-16T08:20:06.946Z,99405.47
2018-08-16T08:22:34.664Z,99407.03
2018-08-16T08:25:02.419Z,99403.94
2018-08-16T08:27:30.141Z,99397.95
2018-08-16T08:29:57.864Z,99406.03
2018-08-16T08:32:25.593Z,99400.65
2018-08-16T08:34:53.352Z,99401.77
2018-08-16T08:37:32.129Z,99387.91
2018-08-16T08:39:59.830Z,99402.20
2018-08-16T08:42:27.536Z,99400.86
2018-08-16T08:44:55.195Z,99395.95
2018-08-16T08:47:27.381Z,99398.43
2018-08-16T08:49:55.934Z,99394.39
2018-08-16T08:52:23.593Z,99390.02
2018-08-16T08:55:02.331Z,99376.60
2018-08-16T08:57:41.620Z,99392.75
2018-08-16T09:00:09.524Z,99378.58
2018-08-16T09:02:37.210Z,99379.94
2018-08-16T09:05:05.558Z,99373.89
2018-08-16T09:07:33.342Z,99373.66
2018-08-16T09:11:19.148Z,99367.15
2018-08-16T09:14:00.337Z,99362.06
2018-08-16T09:16:33.263Z,99360.30
2018-08-16T09:19:01.182Z,99355.88
2018-08-16T09:21:29.560Z,99358.88
2018-08-16T09:23:57.374Z,99362.04
2018-08-16T09:26:30.578Z,99355.39
2018-08-16T09:28:58.395Z,99350.02
2018-08-16T09:31:37.284Z,99340.55
2018-08-16T09:34:14.059Z,99351.48
2018-08-16T09:36:41.765Z,99349.50
2018-08-16T09:39:09.605Z,99354.67
2018-08-16T09:41:37.546Z,99341.70
2018-08-16T09:44:05.446Z,99346.45
2018-08-16T09:47:11.603Z,99347.95
2018-08-16T09:49:41.314Z,99341.62
2018-08-16T09:52:10.097Z,99340.92
2018-08-16T09:54:37.885Z,99338.94
2018-08-16T09:57:07.133Z,99332.77
2018-08-16T09:59:35.115Z,99346.77
2018-08-16T10:02:03.448Z,99339.25
2018-08-16T10:04:31.086Z,99338.07
2018-08-16T10:06:58.919Z,99334.53
2018-08-16T10:09:28.877Z,99332.25
2018-08-16T10:11:57.534Z,99317.05
2018-08-16T10:14:25.332Z,99315.27
2018-08-16T10:16:53.042Z,99316.56
2018-08-16T10:19:21.054Z,99310.84
2018-08-16T10:21:48.816Z,99307.00
2018-08-16T10:24:16.547Z,99303.04
2018-08-16T10:26:44.241Z,99309.06
2018-08-16T10:29:12.330Z,99298.95
2018-08-16T10:31:40.162Z,99294.09
2018-08-16T10:34:07.984Z,99290.17
2018-08-16T10:36:35.744Z,99286.51
2018-08-16T10:39:05.562Z,99282.92
2018-08-16T10:41:33.346Z,99282.77
2018-08-16T10:44:01.048Z,99275.06
2018-08-16T10:46:28.866Z,99284.16
2018-08-16T10:48:56.639Z,99284.01
2018-08-16T10:51:24.371Z,99291.13
2018-08-16T10:53:52.130Z,99279.98
2018-08-16T10:56:20.164Z,99290.59
2018-08-16T10:58:47.902Z,99275.70
2018-08-16T11:01:15.662Z,99276.48
2018-08-16T11:03:43.413Z,99274.95
2018-08-16T11:06:11.206Z,99273.12
2018-08-16T11:08:38.918Z,99266.45
2018-08-16T11:11:06.915Z,99259.34
2018-08-16T11:13:34.586Z,99258.62
2018-08-16T11:16:02.285Z,99256.63
2018-08-16T11:18:30.323Z,99253.45
2018-08-16T11:20:58.056Z,99251.76
2018-08-16T11:23:25.778Z,99246.52
2018-08-16T11:25:53.614Z,99247.34
2018-08-16T11:28:21.316Z,99249.02
2018-08-16T11:30:49.062Z,99250.91
2018-08-16T11:33:16.839Z,99263.72
2018-08-16T11:35:44.518Z,99253.86
2018-08-16T11:38:13.114Z,99246.85
2018-08-16T11:40:40.878Z,99247.57
2018-08-16T11:43:08.578Z,99250.94
2018-08-16T11:45:36.283Z,99246.53
2018-08-16T11:48:04.083Z,99242.42
2018-08-16T11:50:32.086Z,99237.95
2018-08-16T11:52:59.793Z,99238.36
2018-08-16T11:55:27.496Z,99235.64
2018-08-16T11:57:55.188Z,99226.86
2018-08-16T12:00:22.933Z,99230.50
2018-08-16T12:02:50.694Z,99238.16
2018-08-16T12:05:18.477Z,99236.89
2018-08-16T12:07:46.197Z,99234.04
2018-08-16T12:10:14.785Z,99231.53
2018-08-16T12:12:42.481Z,99226.73
2018-08-16T12:15:10.245Z,99219.32
2018-08-16T12:17:38.009Z,99201.78
2018-08-16T12:20:06.678Z,99201.53
2018-08-16T12:22:34.678Z,99207.13
2018-08-16T12:25:02.494Z,99194.16
2018-08-16T12:27:30.342Z,99192.76
2018-08-16T12:29:58.075Z,99201.13
2018-08-16T12:32:25.842Z,99192.55
2018-08-16T12:34:53.552Z,99185.61
2018-08-16T12:37:21.266Z,99174.06
2018-08-16T12:39:49.000Z,99183.89
2018-08-16T12:42:16.848Z,99172.64
2018-08-16T12:44:44.437Z,99176.92
2018-08-16T12:47:12.169Z,99176.39
2018-08-16T12:49:39.860Z,99171.11
2018-08-16T12:52:07.977Z,99168.03
2018-08-16T12:54:35.737Z,99166.09
2018-08-16T12:57:03.538Z,99169.75
2018-08-16T12:59:31.234Z,99166.52
2018-08-16T13:01:59.015Z,99170.02
2018-08-16T13:04:26.707Z,99171.85
2018-08-16T13:06:54.506Z,99166.19
2018-08-16T13:09:22.243Z,99174.44
2018-08-16T13:11:49.963Z,99176.72
2018-08-16T13:14:17.737Z,99167.30
2018-08-16T13:16:45.464Z,99164.52
2018-08-16T13:19:13.218Z,99158.30
2018-08-16T13:21:40.935Z,99157.38
2018-08-16T13:24:08.746Z,99153.00
2018-08-16T13:26:36.492Z,99153.61
2018-08-16T13:29:04.655Z,99160.43
2018-08-16T13:31:32.387Z,99154.30
2018-08-16T13:34:00.143Z,99158.20
2018-08-16T13:36:27.886Z,99162.44
2018-08-16T13:38:55.683Z,99169.99
2018-08-16T13:41:23.537Z,99159.84
2018-08-16T13:43:51.315Z,99155.39
2018-08-16T13:46:19.103Z,99146.91
2018-08-16T13:48:46.936Z,99150.23
2018-08-16T13:51:14.590Z,99154.33
2018-08-16T13:53:42.274Z,99150.19
2018-08-16T13:56:10.047Z,99146.67
2018-08-16T13:58:37.791Z,99142.81
2018-08-16T14:01:05.543Z,99135.61
2018-08-16T14:03:33.318Z,99135.42
2018-08-16T14:06:01.025Z,99136.13
2018-08-16T14:08:28.770Z,99136.36
2018-08-16T14:10:56.492Z,99129.83
2018-08-16T14:13:24.304Z,99122.78
2018-08-16T14:15:52.414Z,99120.88
2018-08-16T14:18:20.105Z,99121.55
2018-08-16T14:20:47.874Z,99124.09
2018-08-16T14:23:15.623Z,99131.50
2018-08-16T14:25:43.339Z,99121.63
2018-08-16T14:28:11.050Z,99118.64
2018-08-16T14:30:38.852Z,99123.84
2018-08-16T14:33:06.589Z,99126.94
2018-08-16T14:35:34.650Z,99128.81
2018-08-16T14:38:02.367Z,99121.40
2018-08-16T14:40:30.087Z,99128.20
2018-08-16T14:42:57.826Z,99125.49
2018-08-16T14:45:25.590Z,99127.57
2018-08-16T14:47:53.420Z,99125.44
2018-08-16T14:50:21.250Z,99130.83
2018-08-16T14:52:49.037Z,99117.98
2018-08-16T14:55:16.754Z,99128.49
2018-08-16T14:57:44.520Z,99121.82
2018-08-16T15:00:12.217Z,99129.48
2018-08-16T15:02:40.519Z,99119.84
2018-08-16T15:05:08.684Z,99128.09
2018-08-16T15:07:36.388Z,99127.00
2018-08-16T15:10:04.975Z,99123.88
2018-08-16T15:12:32.728Z,99128.16
2018-08-16T15:15:01.430Z,99117.55
2018-08-16T15:17:29.152Z,99120.27
2018-08-16T15:19:56.882Z,99117.55
2018-08-16T15:22:24.622Z,99112.13
2018-08-16T15:24:52.334Z,99115.47
2018-08-16T15:27:20.031Z,99112.98
2018-08-16T15:29:47.754Z,99103.14
2018-08-16T15:32:15.529Z,99103.93
2018-08-16T15:34:43.250Z,99102.64
2018-08-16T15:37:10.953Z,99100.23
2018-08-16T15:39:38.710Z,99107.02
2018-08-16T15:42:06.494Z,99111.56
2018-08-16T15:44:34.231Z,99108.42
2018-08-16T15:47:01.954Z,99100.08
2018-08-16T15:49:29.652Z,99101.50
2018-08-16T15:51:57.730Z,99103.39
2018-08-16T15:54:25.506Z,99098.52
2018-08-16T15:56:53.255Z,99095.88
2018-08-16T15:59:21.011Z,99098.62
2018-08-16T16:01:50.799Z,99097.27
2018-08-16T16:04:19.841Z,99097.34
2018-08-16T16:06:47.578Z,99099.84
2018-08-16T16:09:15.264Z,99095.40
2018-08-16T16:11:42.963Z,99092.95
2018-08-16T16:14:10.723Z,99100.56
2018-08-16T16:16:38.455Z,99102.73
2018-08-16T16:19:06.262Z,99099.26
2018-08-16T16:21:34.013Z,99099.92
2018-08-16T16:24:02.014Z,99098.11
2018-08-16T16:26:29.798Z,99100.42
2018-08-16T16:28:57.526Z,99099.98
2018-08-16T16:31:27.053Z,99108.87
2018-08-16T16:33:54.782Z,99105.14
2018-08-16T16:36:22.928Z,99106.88
2018-08-16T16:38:51.006Z,99105.52
2018-08-16T16:41:19.034Z,99105.56
2018-08-16T16:43:46.844Z,99104.74
2018-08-16T16:46:14.667Z,99109.87
2018-08-16T16:48:42.539Z,99108.92
2018-08-16T16:51:12.982Z,99113.40
2018-08-16T16:53:40.781Z,99115.23
2018-08-16T16:56:08.850Z,99120.45
2018-08-16T16:58:36.651Z,99119.27
2018-08-16T17:01:04.859Z,99119.31
2018-08-16T17:03:32.646Z,99120.22
2018-08-16T17:06:00.371Z,99124.00
2018-08-16T17:08:28.070Z,99128.75
2018-08-16T17:10:55.766Z,99119.27
2018-08-16T17:13:23.628Z,99117.59
2018-08-16T17:15:51.349Z,99117.16
2018-08-16T17:18:19.090Z,99116.70
2018-08-16T17:20:46.782Z,99118.88
2018-08-16T17:23:14.494Z,99122.17
2018-08-16T17:25:42.250Z,99121.00
2018-08-16T17:28:09.957Z,99124.60
2018-08-16T17:30:37.801Z,99134.36
2018-08-16T17:33:05.530Z,99129.14
2018-08-16T17:35:33.250Z,99128.33
2018-08-16T17:38:00.947Z,99133.55
2018-08-16T17:40:28.680Z,99133.92
2018-08-16T17:42:56.376Z,99131.53
2018-08-16T17:45:24.196Z,99138.34
2018-08-16T17:47:51.938Z,99138.70
2018-08-16T17:50:20.009Z,99146.30
2018-08-16T17:52:47.757Z,99150.73
2018-08-16T17:55:15.464Z,99148.24
2018-08-16T17:57:43.166Z,99155.27
2018-08-16T18:00:11.865Z,99148.60
2018-08-16T18:02:39.906Z,99157.65
2018-08-16T18:05:08.132Z,99166.31
2018-08-16T18:07:36.157Z,99167.91
2018-08-16T18:10:05.295Z,99162.64
2018-08-16T18:12:33.367Z,99172.11
2018-08-16T18:15:01.078Z,99182.75
2018-08-16T18:17:29.533Z,99197.42
2018-08-16T18:19:57.229Z,99199.98
2018-08-16T18:22:24.898Z,99208.37
2018-08-16T18:24:52.674Z,99217.72
2018-08-16T18:27:20.461Z,99218.37
2018-08-16T18:29:48.209Z,99222.95
2018-08-16T18:32:15.915Z,99223.16
2018-08-16T18:34:43.631Z,99228.08
2018-08-16T18:37:11.337Z,99221.25
2018-08-16T18:39:39.038Z,99230.41
2018-08-16T18:42:06.834Z,99231.56
2018-08-16T18:44:34.577Z,99225.61
2018-08-16T18:47:02.276Z,99227.72
2018-08-16T18:49:30.594Z,99219.38
2018-08-16T18:51:58.451Z,99221.69
2018-08-16T18:54:26.236Z,99221.05
2018-08-16T18:56:54.126Z,99219.56
2018-08-16T18:59:22.397Z,99220.38
2018-08-16T19:01:50.193Z,99221.52
2018-08-16T19:04:18.302Z,99220.28
2018-08-16T19:06:46.072Z,99214.51
2018-08-16T19:09:13.801Z,99209.36
2018-08-16T19:11:41.602Z,99210.89
2018-08-16T19:14:09.567Z,99203.19
2018-08-16T19:16:37.750Z,99197.02
2018-08-16T19:19:05.887Z,99198.08
2018-08-16T19:21:33.973Z,99204.28
2018-08-16T19:24:01.642Z,99212.77
2018-08-16T19:26:29.370Z,99209.27
2018-08-16T19:28:57.062Z,99215.59
2018-08-16T19:31:24.794Z,99212.91
2018-08-16T19:33:52.752Z,99216.52
2018-08-16T19:36:20.491Z,99215.22
2018-08-16T19:38:48.247Z,99215.32
2018-08-16T19:41:16.029Z,99214.64
2018-08-16T19:43:43.759Z,99209.58
2018-08-16T19:46:11.565Z,99211.19
2018-08-16T19:48:39.324Z,99213.12
2018-08-16T19:51:07.356Z,99211.67
2018-08-16T19:53:35.145Z,99215.16
2018-08-16T19:56:02.937Z,99216.33
2018-08-16T19:58:30.677Z,99211.16
2018-08-16T20:00:58.795Z,99206.80
2018-08-16T20:03:27.168Z,99209.48
2018-08-16T20:05:54.898Z,99205.27
2018-08-16T20:08:22.625Z,99210.33
2018-08-16T20:10:50.382Z,99210.50
2018-08-16T20:13:18.222Z,99216.11
2018-08-16T20:15:46.817Z,99217.70
2018-08-16T20:18:14.647Z,99218.92
2018-08-16T20:20:42.338Z,99217.34
2018-08-16T20:23:10.364Z,99224.13
2018-08-16T20:25:38.132Z,99226.16
2018-08-16T20:28:06.343Z,99224.01
2018-08-16T20:30:34.116Z,99225.59
2018-08-16T20:33:01.837Z,99224.92
2018-08-16T20:35:29.573Z,99229.05
2018-08-16T20:37:57.342Z,99237.11
2018-08-16T20:40:25.117Z,99238.16
2018-08-16T20:42:52.898Z,99236.05
2018-08-16T20:45:20.722Z,99244.77
2018-08-16T20:47:48.543Z,99238.66
2018-08-16T20:50:16.348Z,99242.73
2018-08-16T20:52:44.084Z,99240.39
2018-08-16T20:55:11.886Z,99247.05
2018-08-16T20:57:39.657Z,99245.44
2018-08-16T21:00:09.021Z,99248.94
2018-08-16T21:02:36.709Z,99241.41
2018-08-16T21:05:05.035Z,99245.56
2018-08-16T21:07:32.728Z,99253.12
2018-08-16T21:10:00.428Z,99247.34
2018-08-16T21:12:28.167Z,99252.23
2018-08-16T21:14:55.915Z,99259.08
2018-08-16T21:17:23.619Z,99262.97
2018-08-16T21:19:51.310Z,99260.36
2018-08-16T21:22:19.041Z,99255.31
2018-08-16T21:24:46.731Z,99259.66
2018-08-16T21:27:14.426Z,99251.67
2018-08-16T21:29:42.136Z,99256.41
2018-08-16T21:32:09.826Z,99257.19
2018-08-16T21:34:37.560Z,99263.69
2018-08-16T21:37:05.474Z,99257.23
2018-08-16T21:39:33.474Z,99259.95
2018-08-16T21:42:01.162Z,99258.24
2018-08-16T21:44:28.835Z,99254.56
2018-08-16T21:46:56.489Z,99261.06
2018-08-16T21:49:24.216Z,99258.65
2018-08-16T21:51:51.886Z,99264.40
2018-08-16T21:54:19.557Z,99257.54
2018-08-16T21:56:47.225Z,99261.91
2018-08-16T21:59:14.885Z,99253.25
2018-08-16T22:01:42.638Z,99260.88
2018-08-16T22:04:10.384Z,99260.57
2018-08-16T22:06:49.212Z,99255.89
2018-08-16T22:09:16.950Z,99253.91
2018-08-16T22:11:44.637Z,99261.69
2018-08-16T22:14:12.309Z,99260.31
2018-08-16T22:16:39.974Z,99259.32
2018-08-16T22:19:07.678Z,99265.75
2018-08-16T22:21:35.403Z,99259.72
2018-08-16T22:24:03.239Z,99269.73
2018-08-16T22:26:31.372Z,99273.07
2018-08-16T22:28:59.051Z,99271.52
2018-08-16T22:31:26.759Z,99262.81
2018-08-16T22:33:54.470Z,99265.09
2018-08-16T22:36:22.160Z,99256.50
2018-08-16T22:38:49.848Z,99263.88
2018-08-16T22:41:17.513Z,99264.83
2018-08-16T22:43:45.214Z,99263.48
2018-08-16T22:46:12.898Z,99266.92
2018-08-16T22:48:40.579Z,99258.95
2018-08-16T22:51:08.247Z,99264.33
2018-08-16T22:53:35.931Z,99260.73
2018-08-16T22:56:03.650Z,99260.46
2018-08-16T22:58:31.338Z,99260.10
2018-08-16T23:00:59.002Z,99262.77
2018-08-16T23:03:26.662Z,99257.73
2018-08-16T23:05:54.353Z,99259.30
2018-08-16T23:08:22.055Z,99261.87
2018-08-16T23:10:49.759Z,99253.53
2018-08-16T23:13:17.439Z,99262.78
2018-08-16T23:15:45.141Z,99262.50
2018-08-16T23:18:12.827Z,99265.78
2018-08-16T23:20:40.494Z,99266.14
2018-08-16T23:23:08.149Z,99270.39
2018-08-16T23:25:35.835Z,99274.50
2018-08-16T23:28:03.509Z,99273.45
2018-08-16T23:30:31.174Z,99282.85
2018-08-16T23:32:58.943Z,99275.11
2018-08-16T23:35:26.600Z,99281.50
2018-08-16T23:37:54.257Z,99282.91
2018-08-16T23:40:21.929Z,99282.17
2018-08-16T23:42:49.798Z,99282.81
2018-08-16T23:45:17.489Z,99277.05
2018-08-16T23:47:56.387Z,99282.68
2018-08-16T23:50:24.112Z,99285.72
2018-08-16T23:52:51.822Z,99293.68
2018-08-16T23:55:19.538Z,99293.91
2018-08-16T23:57:47.236Z,99291.13
